Time;durP1;ratioP1;P1;durP2;ratioP2;P2;SDS_P1;SDS_P2;PMS_P1;PMS_P2;Temp;Humidity;BMP_temperature;BMP_pressure;BME280_temperature;BME280_humidity;BME280_pressure;Samples;Min_cycle;Max_cycle;Signal;HPM_P1;HPM_P2
2023/11/15 00:01:13;;;;;;;9.00;4.30;;;;;;;7.62;100.00;99174.21;107824;1256;76837;-65
2023/11/15 00:03:40;;;;;;;7.70;4.00;;;;;;;7.59;100.00;99175.70;107775;1256;72857;-66
2023/11/15 00:06:08;;;;;;;8.50;3.70;;;;;;;7.59;100.00;99172.52;107900;1257;71486;-66
2023/11/15 00:08:36;;;;;;;8.70;4.10;;;;;;;7.57;100.00;99168.48;107896;1255;61088;-68
2023/11/15 00:11:05;;;;;;;7.90;3.70;;;;;;;7.57;100.00;99170.67;107919;1256;61209;-65
2023/11/15 00:13:33;;;;;;;8.50;4.20;;;;;;;7.56;100.00;99172.58;107988;1255;74636;-65
2023/11/15 00:16:01;;;;;;;7.90;3.80;;;;;;;7.55;100.00;99170.77;107870;1256;71098;-66
2023/11/15 00:18:28;;;;;;;10.10;4.50;;;;;;;7.54;100.00;99173.40;107893;1256;72637;-66
2023/11/15 00:20:57;;;;;;;11.00;4.30;;;;;;;7.52;100.00;99175.35;108091;1256;61290;-66
2023/11/15 00:23:26;;;;;;;10.20;4.00;;;;;;;7.52;100.00;99177.27;107899;1256;61235;-65
2023/11/15 00:25:54;;;;;;;9.10;4.10;;;;;;;7.52;100.00;99174.82;107876;1256;73473;-67
2023/11/15 00:28:22;;;;;;;8.00;4.60;;;;;;;7.51;100.00;99174.14;107903;1256;71826;-66
2023/11/15 00:30:49;;;;;;;9.90;3.80;;;;;;;7.51;100.00;99172.98;108027;1255;72479;-64
2023/11/15 00:33:17;;;;;;;9.60;3.80;;;;;;;7.50;100.00;99172.71;107883;1255;61652;-66
2023/11/15 00:35:45;;;;;;;8.80;3.90;;;;;;;7.51;100.00;99173.67;107871;1256;61128;-67
2023/11/15 00:38:14;;;;;;;7.40;3.70;;;;;;;7.50;100.00;99173.23;107672;1255;74698;-66
2023/11/15 00:40:42;;;;;;;7.10;3.90;;;;;;;7.49;100.00;99169.63;107845;1255;71613;-67
2023/11/15 00:43:10;;;;;;;7.70;3.80;;;;;;;7.47;100.00;99167.84;107915;1256;70644;-66
2023/11/15 00:45:38;;;;;;;9.30;4.10;;;;;;;7.45;100.00;99166.09;107776;1256;61089;-66
2023/11/15 00:48:06;;;;;;;6.40;3.40;;;;;;;7.43;100.00;99165.77;107799;1256;59996;-66
2023/11/15 00:50:33;;;;;;;6.30;3.10;;;;;;;7.41;100.00;99160.94;108018;1256;73424;-65
2023/11/15 00:53:03;;;;;;;7.50;3.70;;;;;;;7.38;100.00;99160.95;107855;1256;72717;-65
2023/11/15 00:55:31;;;;;;;8.50;3.80;;;;;;;7.37;100.00;99155.01;107833;1256;72771;-64
2023/11/15 00:57:59;;;;;;;8.10;3.90;;;;;;;7.37;100.00;99152.88;107911;1256;61097;-65
2023/11/15 01:00:32;;;;;;;6.90;3.50;;;;;;;7.36;100.00;99147.08;108029;1256;61806;-65
2023/11/15 01:03:01;;;;;;;7.20;3.40;;;;;;;7.36;100.00;99146.71;108045;1256;72926;-66
2023/11/15 01:05:29;;;;;;;9.30;3.80;;;;;;;7.36;100.00;99143.10;107887;1258;71461;-65
2023/11/15 01:07:59;;;;;;;8.00;3.50;;;;;;;7.36;100.00;99139.38;107840;1257;72743;-66
2023/11/15 01:10:27;;;;;;;8.70;3.70;;;;;;;7.36;100.00;99138.05;107899;1255;62803;-67
2023/11/15 01:12:54;;;;;;;6.80;3.30;;;;;;;7.38;100.00;99131.09;107839;1257;61261;-65
2023/11/15 01:15:22;;;;;;;7.10;3.40;;;;;;;7.40;100.00;99130.55;107755;1256;74621;-65
2023/11/15 01:17:50;;;;;;;9.70;3.70;;;;;;;7.41;100.00;99124.13;107832;1255;71154;-65
2023/11/15 01:20:18;;;;;;;6.60;3.40;;;;;;;7.39;100.00;99119.77;107740;1255;72671;-65
2023/11/15 01:22:46;;;;;;;5.70;3.10;;;;;;;7.43;100.00;99119.12;107793;1256;61813;-68
2023/11/15 01:25:14;;;;;;;8.10;3.30;;;;;;;7.45;100.00;99113.02;108056;1257;61247;-65
2023/11/15 01:27:42;;;;;;;7.40;3.70;;;;;;;7.44;100.00;99113.02;107878;1258;74699;-66
2023/11/15 01:30:10;;;;;;;9.00;3.40;;;;;;;7.45;100.00;99116.40;108082;1256;72514;-66
2023/11/15 01:32:38;;;;;;;7.00;3.30;;;;;;;7.44;100.00;99117.85;107861;1256;72453;-66
2023/11/15 01:35:06;;;;;;;8.50;3.50;;;;;;;7.45;100.00;99116.67;107803;1255;61194;-70
2023/11/15 01:37:34;;;;;;;9.40;3.80;;;;;;;7.45;100.00;99114.02;107850;1257;61130;-66
2023/11/15 01:40:06;;;;;;;7.70;3.60;;;;;;;7.44;100.00;99116.46;107688;1256;74660;-66
2023/11/15 01:42:34;;;;;;;9.20;3.20;;;;;;;7.43;100.00;99115.20;107994;1256;72512;-66
2023/11/15 01:45:02;;;;;;;8.70;3.50;;;;;;;7.42;100.00;99114.88;107911;1256;72638;-66
2023/11/15 01:47:30;;;;;;;11.20;4.00;;;;;;;7.41;100.00;99119.34;107807;1256;61734;-67
2023/11/15 01:49:59;;;;;;;7.20;3.10;;;;;;;7.41;100.00;99119.77;107834;1259;61265;-65
2023/11/15 01:52:27;;;;;;;6.80;3.80;;;;;;;7.43;100.00;99119.97;107697;1255;73390;-65
2023/11/15 01:54:55;;;;;;;9.40;4.00;;;;;;;7.43;100.00;99117.63;107927;1256;70655;-65
2023/11/15 01:57:23;;;;;;;8.30;3.50;;;;;;;7.43;100.00;99119.66;107713;1256;71421;-67
2023/11/15 01:59:50;;;;;;;8.80;3.70;;;;;;;7.40;100.00;99117.96;107870;1256;61235;-66
2023/11/15 02:02:18;;;;;;;8.60;3.50;;;;;;;7.37;100.00;99118.83;107774;1256;61269;-65
2023/11/15 02:04:46;;;;;;;6.10;3.50;;;;;;;7.33;100.00;99115.75;107928;1256;74689;-67
2023/11/15 02:07:14;;;;;;;7.70;3.50;;;;;;;7.30;100.00;99114.60;107854;1256;72724;-66
2023/11/15 02:09:41;;;;;;;7.30;3.50;;;;;;;7.26;100.00;99109.55;108090;1256;72870;-65
2023/11/15 02:12:09;;;;;;;7.20;3.40;;;;;;;7.22;100.00;99111.59;107938;1255;62162;-65
2023/11/15 02:14:37;;;;;;;6.30;3.30;;;;;;;7.19;100.00;99113.67;108080;1255;61096;-66
2023/11/15 02:17:05;;;;;;;8.80;3.70;;;;;;;7.17;100.00;99117.82;107808;1256;73454;-65
2023/11/15 02:19:32;;;;;;;7.90;3.50;;;;;;;7.16;100.00;99125.79;107809;1256;72822;-66
2023/11/15 02:22:00;;;;;;;7.80;3.30;;;;;;;7.14;100.00;99133.96;107904;1255;72487;-67
2023/11/15 02:24:28;;;;;;;9.00;3.40;;;;;;;7.11;100.00;99134.40;107825;1261;61702;-66
2023/11/15 02:26:56;;;;;;;6.10;3.30;;;;;;;7.08;100.00;99133.83;107999;1255;62287;-66
2023/11/15 02:29:24;;;;;;;6.70;2.90;;;;;;;7.07;100.00;99132.12;107785;1256;73037;-68
2023/11/15 02:31:51;;;;;;;8.60;4.10;;;;;;;7.06;100.00;99138.86;107852;1256;72703;-65
2023/11/15 02:34:19;;;;;;;6.90;3.10;;;;;;;7.07;100.00;99140.66;107805;1255;72308;-66
2023/11/15 02:36:46;;;;;;;8.50;3.70;;;;;;;7.07;100.00;99142.33;107797;1260;61125;-66
2023/11/15 02:39:14;;;;;;;5.90;3.20;;;;;;;7.05;100.00;99141.48;107853;1256;60998;-64
2023/11/15 02:41:41;;;;;;;8.20;3.30;;;;;;;7.05;100.00;99145.71;107892;1255;74580;-67
2023/11/15 02:44:10;;;;;;;7.00;3.60;;;;;;;7.07;100.00;99148.36;107830;1256;72699;-65
2023/11/15 02:46:38;;;;;;;6.90;3.20;;;;;;;7.08;100.00;99149.11;107797;1256;71324;-67
2023/11/15 02:49:05;;;;;;;8.10;3.40;;;;;;;7.09;100.00;99152.83;107964;1256;61783;-66
2023/11/15 02:51:33;;;;;;;6.00;3.20;;;;;;;7.13;100.00;99155.69;107788;1256;61139;-66
2023/11/15 02:54:04;;;;;;;8.80;3.80;;;;;;;7.18;100.00;99156.10;107802;1256;74646;-67
2023/11/15 02:56:31;;;;;;;6.70;3.10;;;;;;;7.22;100.00;99152.85;107767;1255;72765;-66
2023/11/15 02:58:59;;;;;;;7.10;3.20;;;;;;;7.27;100.00;99152.54;107724;1255;72522;-66
2023/11/15 03:01:26;;;;;;;8.90;3.60;;;;;;;7.32;100.00;99148.90;107790;1255;61646;-66
2023/11/15 03:03:54;;;;;;;6.30;3.20;;;;;;;7.36;100.00;99143.53;107854;1256;61408;-67
2023/11/15 03:06:22;;;;;;;7.20;3.20;;;;;;;7.39;100.00;99140.91;107896;1256;73445;-66
2023/11/15 03:08:50;;;;;;;5.90;3.00;;;;;;;7.41;100.00;99141.40;107855;1256;72485;-66
2023/11/15 03:11:17;;;;;;;5.70;3.10;;;;;;;7.43;100.00;99143.88;107896;1256;71046;-66
2023/11/15 03:13:45;;;;;;;7.70;3.40;;;;;;;7.44;100.00;99147.96;107926;1256;61111;-65
2023/11/15 03:16:12;;;;;;;8.60;3.20;;;;;;;7.44;100.00;99150.79;107864;1255;60154;-66
2023/11/15 03:18:42;;;;;;;7.20;3.40;;;;;;;7.45;100.00;99155.25;107892;1256;74672;-67
2023/11/15 03:21:10;;;;;;;7.20;3.10;;;;;;;7.45;100.00;99152.22;107844;1256;72693;-67
2023/11/15 03:23:38;;;;;;;8.00;3.10;;;;;;;7.46;100.00;99154.77;107955;1256;71940;-67
2023/11/15 03:26:07;;;;;;;8.00;3.20;;;;;;;7.48;100.00;99149.92;107906;1257;61736;-65
2023/11/15 03:28:34;;;;;;;6.70;3.30;;;;;;;7.47;100.00;99151.09;107943;1256;61112;-65
2023/11/15 03:31:02;;;;;;;6.80;3.60;;;;;;;7.51;100.00;99152.25;107883;1255;74587;-67
2023/11/15 03:33:31;;;;;;;7.20;3.50;;;;;;;7.58;100.00;99154.20;108035;1256;72962;-66
2023/11/15 03:35:59;;;;;;;8.10;3.70;;;;;;;7.64;100.00;99150.55;107786;1255;71237;-66
2023/11/15 03:38:27;;;;;;;6.90;3.40;;;;;;;7.67;100.00;99146.19;107922;1256;61203;-66
2023/11/15 03:40:54;;;;;;;7.60;3.50;;;;;;;7.72;100.00;99151.05;107902;1258;61156;-67
2023/11/15 03:43:22;;;;;;;7.10;3.20;;;;;;;7.74;100.00;99152.59;107933;1256;74700;-66
2023/11/15 03:45:50;;;;;;;9.00;3.50;;;;;;;7.77;100.00;99151.73;107894;1255;72855;-67
2023/11/15 03:48:18;;;;;;;8.50;3.80;;;;;;;7.80;100.00;99150.23;108019;1255;72521;-67
2023/11/15 03:50:46;;;;;;;6.80;3.30;;;;;;;7.82;100.00;99148.34;107999;1256;61705;-67
2023/11/15 03:53:14;;;;;;;7.80;3.70;;;;;;;7.82;100.00;99149.15;107845;1256;60410;-66
2023/11/15 03:55:42;;;;;;;8.10;3.80;;;;;;;7.82;100.00;99151.59;107790;1255;72843;-67
2023/11/15 03:58:14;;;;;;;7.20;3.40;;;;;;;7.80;100.00;99154.27;108083;1256;71429;-65
2023/11/15 04:00:42;;;;;;;7.30;3.40;;;;;;;7.76;100.00;99156.09;107914;1256;72682;-66
2023/11/15 04:03:09;;;;;;;8.40;3.60;;;;;;;7.73;100.00;99171.04;107884;1257;62173;-66
2023/11/15 04:05:37;;;;;;;6.00;3.30;;;;;;;7.69;100.00;99172.11;108037;1255;61098;-67
2023/11/15 04:08:05;;;;;;;6.20;3.40;;;;;;;7.67;100.00;99172.29;108007;1255;73440;-67
2023/11/15 04:10:33;;;;;;;7.70;4.10;;;;;;;7.63;100.00;99169.37;107919;1256;72717;-65
2023/11/15 04:13:00;;;;;;;8.50;3.70;;;;;;;7.61;100.00;99172.83;107941;1256;72712;-65
2023/11/15 04:15:28;;;;;;;7.80;3.60;;;;;;;7.57;100.00;99178.42;107942;1256;61157;-66
2023/11/15 04:17:56;;;;;;;9.70;4.10;;;;;;;7.51;100.00;99172.33;108010;1256;61214;-66
2023/11/15 04:20:23;;;;;;;7.30;3.80;;;;;;;7.46;100.00;99168.16;107956;1256;73474;-66
2023/11/15 04:22:51;;;;;;;8.60;3.60;;;;;;;7.41;100.00;99169.02;108001;1256;71730;-67
2023/11/15 04:25:19;;;;;;;6.50;3.70;;;;;;;7.36;100.00;99163.88;107891;1256;72959;-66
2023/11/15 04:27:46;;;;;;;7.40;3.90;;;;;;;7.35;100.00;99167.70;107924;1256;61147;-66
2023/11/15 04:30:15;;;;;;;6.50;3.60;;;;;;;7.32;100.00;99165.00;107880;1256;61100;-68
2023/11/15 04:32:46;;;;;;;6.50;3.90;;;;;;;7.29;100.00;99169.52;107957;1256;73444;-67
2023/11/15 04:35:13;;;;;;;8.00;3.90;;;;;;;7.25;100.00;99173.40;107910;1256;71588;-67
2023/11/15 04:37:41;;;;;;;6.70;3.80;;;;;;;7.22;100.00;99177.29;107928;1256;71452;-67
2023/11/15 04:40:10;;;;;;;7.40;3.60;;;;;;;7.20;100.00;99183.55;107943;1256;61629;-66
2023/11/15 04:42:38;;;;;;;7.70;3.60;;;;;;;7.16;100.00;99185.10;107817;1257;61137;-66
2023/11/15 04:45:07;;;;;;;7.80;3.70;;;;;;;7.16;100.00;99188.39;107988;1256;74672;-66
2023/11/15 04:47:35;;;;;;;8.30;3.80;;;;;;;7.17;100.00;99194.77;107915;1256;72747;-67
2023/11/15 04:50:04;;;;;;;6.70;3.80;;;;;;;7.15;100.00;99193.45;107923;1256;71943;-67
2023/11/15 04:52:31;;;;;;;7.30;3.60;;;;;;;7.14;100.00;99196.52;107859;1256;61062;-67
2023/11/15 04:54:59;;;;;;;10.20;3.90;;;;;;;7.12;100.00;99201.36;107923;1255;61191;-67
2023/11/15 04:57:29;;;;;;;7.50;3.50;;;;;;;7.15;100.00;99209.02;107859;1256;73560;-66
2023/11/15 04:59:56;;;;;;;6.30;3.40;;;;;;;7.21;100.00;99212.98;107786;1256;71126;-66
2023/11/15 05:02:27;;;;;;;8.80;4.00;;;;;;;7.28;100.00;99216.44;107898;1256;72728;-68
2023/11/15 05:04:55;;;;;;;11.30;3.80;;;;;;;7.34;100.00;99227.14;108014;1256;61100;-65
2023/11/15 05:07:24;;;;;;;6.80;3.20;;;;;;;7.41;100.00;99228.89;107941;1259;60394;-67
2023/11/15 05:09:53;;;;;;;7.00;3.50;;;;;;;7.47;100.00;99227.13;107908;1256;74632;-66
2023/11/15 05:12:21;;;;;;;5.90;3.30;;;;;;;7.52;100.00;99228.23;107964;1256;71442;-66
2023/11/15 05:14:48;;;;;;;7.00;3.30;;;;;;;7.57;100.00;99232.20;107964;1256;71310;-65
2023/11/15 05:17:16;;;;;;;8.00;3.70;;;;;;;7.60;100.00;99232.37;107840;1255;62575;-64
2023/11/15 05:19:44;;;;;;;10.40;3.60;;;;;;;7.63;100.00;99229.86;107924;1255;61053;-65
2023/11/15 05:22:11;;;;;;;7.20;3.40;;;;;;;7.67;100.00;99226.13;107933;1256;74662;-67
2023/11/15 05:24:39;;;;;;;8.90;3.80;;;;;;;7.71;100.00;99227.86;107996;1255;72935;-66
2023/11/15 05:27:09;;;;;;;5.80;3.30;;;;;;;7.74;100.00;99226.69;107921;1255;71731;-66
2023/11/15 05:29:37;;;;;;;8.60;3.30;;;;;;;7.78;100.00;99230.45;107776;1260;61150;-67
2023/11/15 05:32:05;;;;;;;7.50;3.70;;;;;;;7.79;100.00;99226.03;107804;1255;60985;-66
2023/11/15 05:34:33;;;;;;;6.90;3.50;;;;;;;7.82;100.00;99224.65;107945;1255;74736;-66
2023/11/15 05:37:00;;;;;;;8.50;3.50;;;;;;;7.85;100.00;99218.89;107772;1260;71300;-67
2023/11/15 05:39:28;;;;;;;6.10;3.00;;;;;;;7.89;100.00;99218.94;107835;1256;71453;-68
2023/11/15 05:41:56;;;;;;;7.90;3.60;;;;;;;7.91;100.00;99217.13;107967;1256;60382;-66
2023/11/15 05:44:23;;;;;;;6.50;3.40;;;;;;;7.94;100.00;99225.66;107843;1255;61109;-66
2023/11/15 05:46:51;;;;;;;5.90;3.40;;;;;;;7.96;100.00;99220.82;107817;1256;74675;-66
2023/11/15 05:49:18;;;;;;;7.90;3.70;;;;;;;7.98;99.78;99223.68;107933;1255;73036;-67
2023/11/15 05:51:46;;;;;;;8.10;3.30;;;;;;;8.00;98.85;99228.78;107946;1256;72483;-67
2023/11/15 05:54:14;;;;;;;6.50;3.20;;;;;;;8.04;98.28;99228.34;107771;1256;61300;-66
2023/11/15 05:56:47;;;;;;;5.70;3.40;;;;;;;8.07;97.59;99229.39;108004;1255;61333;-66
2023/11/15 05:59:15;;;;;;;11.00;3.50;;;;;;;8.11;97.05;99226.65;107798;1256;74626;-67
2023/11/15 06:01:43;;;;;;;6.40;2.80;;;;;;;8.15;96.70;99229.78;107802;1256;71250;-67
2023/11/15 06:04:10;;;;;;;8.60;3.60;;;;;;;8.18;96.10;99233.70;107926;1255;74919;-66
2023/11/15 06:06:38;;;;;;;7.90;3.40;;;;;;;8.22;95.63;99236.56;107946;1256;61690;-67
2023/11/15 06:09:13;;;;;;;7.00;3.50;;;;;;;8.25;94.74;99237.59;107956;1256;61107;-66
2023/11/15 06:11:42;;;;;;;7.30;3.20;;;;;;;8.26;93.83;99234.98;107901;1256;75719;-66
2023/11/15 06:14:14;;;;;;;9.50;4.10;;;;;;;8.27;93.41;99234.36;107914;1260;71873;-66
2023/11/15 06:16:42;;;;;;;;;;;;;;;8.26;93.12;99235.21;107993;1256;71649;-67
2023/11/15 06:19:09;;;;;;;7.40;3.50;;;;;;;8.27;93.00;99232.87;107957;1256;61172;-67
2023/11/15 06:22:07;;;;;;;6.10;3.80;;;;;;;8.30;93.07;99225.77;107911;1256;61163;-67
2023/11/15 06:25:08;;;;;;;7.00;3.60;;;;;;;8.36;93.21;99227.02;107775;1256;76548;-66
2023/11/15 06:27:38;;;;;;;9.90;3.50;;;;;;;8.44;93.15;99229.88;107780;1256;72441;-68
2023/11/15 06:30:08;;;;;;;7.80;3.20;;;;;;;8.51;93.06;99229.46;108010;1257;71480;-67
2023/11/15 06:32:37;;;;;;;8.40;3.40;;;;;;;8.59;92.98;99227.86;107678;1256;60990;-66
2023/11/15 06:35:05;;;;;;;6.80;3.50;;;;;;;8.69;92.87;99227.42;107959;1256;61096;-65
2023/11/15 06:37:34;;;;;;;8.20;3.70;;;;;;;8.76;91.83;99230.62;107686;1256;76400;-66
2023/11/15 06:40:07;;;;;;;8.60;3.50;;;;;;;8.81;91.14;99229.11;107744;1256;72949;-67
2023/11/15 06:42:36;;;;;;;7.20;3.40;;;;;;;8.87;90.78;99225.48;107868;1258;71510;-67
2023/11/15 06:45:04;;;;;;;7.50;3.20;;;;;;;8.93;90.09;99224.64;107682;1256;62634;-67
2023/11/15 06:47:33;;;;;;;8.20;3.90;;;;;;;8.97;89.28;99223.13;108054;1256;61162;-68
2023/11/15 06:50:04;;;;;;;6.30;3.50;;;;;;;9.03;88.93;99222.54;107846;1256;73426;-66
2023/11/15 06:52:32;;;;;;;5.70;3.30;;;;;;;9.12;88.59;99224.44;107835;1256;72695;-67
2023/11/15 06:55:02;;;;;;;6.90;3.50;;;;;;;9.22;88.07;99224.89;107798;1255;72784;-67
2023/11/15 06:57:30;;;;;;;8.00;3.80;;;;;;;9.29;86.94;99227.21;107748;1256;61770;-66
2023/11/15 06:59:59;;;;;;;8.00;3.60;;;;;;;9.32;85.86;99229.16;107987;1256;61141;-66
2023/11/15 07:02:26;;;;;;;8.80;3.90;;;;;;;9.32;84.62;99231.45;107970;1256;74660;-67
2023/11/15 07:04:55;;;;;;;7.40;3.80;;;;;;;9.33;84.33;99231.71;107983;1256;72603;-66
2023/11/15 07:07:22;;;;;;;8.40;3.70;;;;;;;9.37;83.71;99233.16;107960;1259;72663;-65
2023/11/15 07:09:51;;;;;;;9.00;3.70;;;;;;;9.44;83.45;99234.11;107983;1256;61674;-66
2023/11/15 07:12:18;;;;;;;10.20;4.00;;;;;;;9.51;82.83;99234.04;107938;1256;60063;-66
2023/11/15 07:14:48;;;;;;;9.10;3.60;;;;;;;9.59;82.42;99238.85;107926;1256;73373;-66
2023/11/15 07:17:18;;;;;;;7.50;3.80;;;;;;;9.69;81.48;99237.75;107888;1255;73798;-67
2023/11/15 07:19:49;;;;;;;8.10;4.20;;;;;;;9.73;80.41;99235.46;107944;1256;73186;-67
2023/11/15 07:22:17;;;;;;;6.10;3.40;;;;;;;9.78;80.03;99235.47;107750;1256;61667;-66
2023/11/15 07:24:45;;;;;;;8.10;3.80;;;;;;;9.85;79.67;99235.17;107955;1256;61200;-67
2023/11/15 07:27:13;;;;;;;8.30;4.30;;;;;;;9.92;79.36;99230.34;107907;1256;73474;-66
2023/11/15 07:29:41;;;;;;;8.00;3.90;;;;;;;10.01;78.85;99235.25;107959;1256;72750;-65
2023/11/15 07:32:09;;;;;;;8.60;3.30;;;;;;;10.07;78.00;99233.67;107975;1255;71055;-66
2023/11/15 07:34:38;;;;;;;7.20;3.50;;;;;;;10.13;77.29;99229.73;107912;1256;62825;-67
2023/11/15 07:37:06;;;;;;;9.10;4.00;;;;;;;10.17;76.74;99229.08;108029;1256;61242;-68
2023/11/15 07:39:34;;;;;;;8.30;3.20;;;;;;;10.22;76.56;99225.50;107965;1256;76815;-69
2023/11/15 07:42:01;;;;;;;11.30;3.90;;;;;;;10.29;76.35;99226.83;108038;1256;73264;-66
2023/11/15 07:44:30;;;;;;;8.50;3.90;;;;;;;10.39;76.31;99227.33;107739;1256;74172;-67
2023/11/15 07:47:01;;;;;;;7.40;3.40;;;;;;;10.49;76.14;99225.74;107926;1259;60467;-67
2023/11/15 07:49:29;;;;;;;6.70;3.10;;;;;;;10.62;76.04;99218.47;107989;1256;60541;-67
2023/11/15 07:51:57;;;;;;;8.50;3.70;;;;;;;10.74;75.53;99213.11;107976;1260;73448;-68
2023/11/15 07:54:24;;;;;;;9.10;3.40;;;;;;;10.82;74.64;99206.67;107948;1256;71532;-66
2023/11/15 07:56:55;;;;;;;7.30;3.80;;;;;;;10.88;73.43;99206.16;107862;1256;72721;-66
2023/11/15 07:59:24;;;;;;;8.10;3.90;;;;;;;10.89;72.29;99206.41;107962;1256;61709;-66
2023/11/15 08:01:52;;;;;;;9.40;4.00;;;;;;;10.89;71.79;99204.41;107731;1257;61255;-65
2023/11/15 08:04:21;;;;;;;7.20;3.50;;;;;;;10.89;71.32;99204.96;107720;1257;74726;-67
2023/11/15 08:06:49;;;;;;;8.40;4.10;;;;;;;10.92;71.33;99198.70;107711;1259;71621;-67
2023/11/15 08:09:27;;;;;;;7.70;4.00;;;;;;;10.99;71.18;99198.17;107774;1257;72058;-66
2023/11/15 08:11:55;;;;;;;8.20;4.00;;;;;;;11.07;71.01;99198.58;107718;1257;61314;-67
2023/11/15 08:14:25;;;;;;;8.30;3.70;;;;;;;11.14;70.84;99197.33;107802;1257;61274;-67
2023/11/15 08:16:54;;;;;;;8.20;3.70;;;;;;;11.17;70.39;99194.35;107918;1257;74606;-67
2023/11/15 08:19:22;;;;;;;7.00;3.50;;;;;;;11.17;70.47;99192.41;107738;1257;73969;-67
2023/11/15 08:21:50;;;;;;;9.30;4.20;;;;;;;11.16;70.27;99192.12;108094;1257;72760;-65
2023/11/15 08:24:21;;;;;;;10.90;4.50;;;;;;;11.12;69.79;99190.42;107747;1256;61130;-65
2023/11/15 08:26:52;;;;;;;9.00;3.60;;;;;;;11.08;70.01;99185.89;107925;1257;61327;-66
2023/11/15 08:29:21;;;;;;;8.80;4.00;;;;;;;11.10;70.17;99188.11;107774;1258;72658;-66
2023/11/15 08:31:49;;;;;;;10.40;4.10;;;;;;;11.10;70.19;99186.29;107741;1261;73608;-65
2023/11/15 08:34:20;;;;;;;8.40;4.00;;;;;;;11.07;70.02;99187.31;107793;1258;72694;-67
2023/11/15 08:36:50;;;;;;;9.10;4.20;;;;;;;11.00;70.11;99186.23;107718;1256;64052;-67
2023/11/15 08:39:18;;;;;;;9.30;4.20;;;;;;;10.94;70.15;99186.91;107737;1258;61288;-65
2023/11/15 08:41:47;;;;;;;10.40;4.00;;;;;;;10.90;70.62;99187.69;107691;1257;74687;-67
2023/11/15 08:44:16;;;;;;;8.80;3.80;;;;;;;10.93;70.84;99193.09;107831;1257;71599;-66
2023/11/15 08:46:44;;;;;;;10.00;4.30;;;;;;;11.00;71.03;99188.23;107958;1257;73044;-66
2023/11/15 08:49:15;;;;;;;8.50;3.60;;;;;;;11.09;71.15;99184.48;107717;1261;61124;-66
2023/11/15 08:51:47;;;;;;;;;;;;;;;11.20;70.91;99181.73;107768;1257;61242;-66
2023/11/15 08:54:34;;;;;;;7.80;3.40;;;;;;;11.29;70.82;99171.67;107789;1258;73402;-66
2023/11/15 08:57:17;;;;;;;7.60;3.70;;;;;;;11.41;70.27;99176.80;107799;1259;73115;-65
2023/11/15 08:59:52;;;;;;;7.10;3.90;;;;;;;11.47;69.73;99171.77;107686;1259;72729;-65
2023/11/15 09:02:34;;;;;;;7.40;3.80;;;;;;;11.53;69.27;99168.50;107964;1258;61287;-65
2023/11/15 09:05:08;;;;;;;9.40;4.20;;;;;;;11.56;68.92;99167.69;108011;1257;61135;-68
2023/11/15 09:07:43;;;;;;;8.90;3.70;;;;;;;11.57;68.57;99166.56;107933;1256;74641;-66
2023/11/15 09:10:15;;;;;;;8.40;4.00;;;;;;;11.57;68.07;99163.92;107745;1258;72080;-67
2023/11/15 09:12:49;;;;;;;11.30;4.20;;;;;;;11.58;67.11;99166.43;107698;1258;72781;-66
2023/11/15 09:15:25;;;;;;;7.30;3.80;;;;;;;11.58;66.79;99156.16;107663;1258;64008;-66
2023/11/15 09:17:56;;;;;;;7.70;3.40;;;;;;;11.63;66.93;99151.86;107920;1259;61138;-67
2023/11/15 09:20:35;;;;;;;9.80;3.90;;;;;;;11.72;66.60;99152.98;108027;1258;74590;-68
2023/11/15 09:23:25;;;;;;;8.50;4.10;;;;;;;11.80;66.30;99150.05;107756;1261;71573;-68
2023/11/15 09:26:06;;;;;;;7.10;3.30;;;;;;;11.88;66.17;99147.40;107716;1258;71453;-65
2023/11/15 09:28:37;;;;;;;8.50;3.70;;;;;;;11.98;66.10;99148.79;107659;1258;61441;-66
2023/11/15 09:31:13;;;;;;;6.80;3.40;;;;;;;12.00;65.30;99148.91;107687;1259;61924;-66
2023/11/15 09:34:08;;;;;;;8.50;3.70;;;;;;;12.01;65.37;99149.59;107800;1259;74907;-68
2023/11/15 09:36:43;;;;;;;9.70;4.10;;;;;;;12.02;64.81;99150.07;107915;1257;71625;-66
2023/11/15 09:39:19;;;;;;;9.20;3.80;;;;;;;12.01;65.00;99145.59;107733;1257;72771;-65
2023/11/15 09:41:53;;;;;;;10.00;3.80;;;;;;;12.02;64.85;99144.23;107793;1258;61024;-67
2023/11/15 09:44:29;;;;;;;8.90;4.40;;;;;;;12.00;64.51;99141.33;107994;1257;61137;-66
2023/11/15 09:46:58;;;;;;;9.10;4.10;;;;;;;11.97;64.42;99139.89;107963;1258;74684;-65
2023/11/15 09:49:26;;;;;;;8.50;4.00;;;;;;;11.87;64.88;99139.83;107748;1259;72890;-67
2023/11/15 09:51:54;;;;;;;7.50;3.90;;;;;;;11.84;65.27;99136.98;107751;1257;71693;-67
2023/11/15 09:54:22;;;;;;;8.60;3.90;;;;;;;11.87;65.60;99136.61;107740;1259;60449;-67
2023/11/15 09:56:51;;;;;;;8.20;4.20;;;;;;;11.93;65.53;99133.22;107791;1261;62049;-67
2023/11/15 09:59:19;;;;;;;10.30;3.80;;;;;;;12.01;65.32;99129.90;107785;1258;74689;-66
2023/11/15 10:01:50;;;;;;;8.30;4.00;;;;;;;12.09;64.91;99126.83;107763;1258;73486;-67
2023/11/15 10:04:28;;;;;;;8.90;4.10;;;;;;;12.19;64.69;99129.98;107757;1257;72448;-67
2023/11/15 10:06:57;;;;;;;7.60;3.70;;;;;;;12.32;64.27;99117.89;107753;1256;61307;-66
2023/11/15 10:09:38;;;;;;;12.30;4.50;;;;;;;12.42;63.54;99120.01;107806;1257;61121;-67
2023/11/15 10:12:08;;;;;;;10.20;4.10;;;;;;;12.43;63.23;99117.63;107913;1257;74849;-66
2023/11/15 10:14:51;;;;;;;8.50;3.80;;;;;;;12.44;63.27;99118.15;107829;1258;72583;-67
2023/11/15 10:17:46;;;;;;;9.20;4.20;;;;;;;12.48;63.11;99115.09;107972;1259;72870;-66
2023/11/15 10:20:20;;;;;;;10.60;4.30;;;;;;;12.47;63.05;99115.35;107708;1257;61380;-68
2023/11/15 10:22:48;;;;;;;8.80;3.80;;;;;;;12.48;63.25;99117.70;107704;1259;61144;-67
2023/11/15 10:25:15;;;;;;;11.00;4.20;;;;;;;12.53;63.17;99116.45;107740;1257;74483;-68
2023/11/15 10:27:44;;;;;;;9.00;4.00;;;;;;;12.55;62.89;99113.46;107714;1259;71637;-67
2023/11/15 10:30:13;;;;;;;8.00;4.10;;;;;;;12.56;62.86;99111.44;107673;1259;74638;-66
2023/11/15 10:32:41;;;;;;;8.60;4.10;;;;;;;12.54;62.76;99113.96;108508;1257;61767;-67
2023/11/15 10:35:08;;;;;;;8.10;3.30;;;;;;;12.53;62.91;99113.13;107945;1259;61128;-67
2023/11/15 10:37:49;;;;;;;7.00;3.90;;;;;;;12.53;62.87;99112.96;107721;1259;75124;-67
2023/11/15 10:40:21;;;;;;;10.30;5.30;;;;;;;12.54;63.05;99117.87;107747;1259;72758;-68
2023/11/15 10:42:49;;;;;;;8.50;4.00;;;;;;;12.56;63.08;99118.12;107390;1261;316941;-65
2023/11/15 10:45:22;;;;;;;7.90;3.90;;;;;;;12.57;63.00;99119.61;107580;1258;62787;-68
2023/11/15 10:47:58;;;;;;;12.20;4.30;;;;;;;12.59;63.08;99120.16;107729;1257;61091;-65
2023/11/15 10:50:26;;;;;;;8.80;4.00;;;;;;;12.62;63.04;99117.73;107692;1259;77004;-67
2023/11/15 10:52:54;;;;;;;10.20;4.50;;;;;;;12.68;63.16;99117.36;108015;1258;71989;-67
2023/11/15 10:55:22;;;;;;;8.70;4.20;;;;;;;12.74;63.11;99116.79;107769;1257;73062;-66
2023/11/15 10:57:50;;;;;;;8.60;3.90;;;;;;;12.80;62.92;99117.39;107695;1259;61134;-67
2023/11/15 11:00:19;;;;;;;8.40;4.50;;;;;;;12.82;62.41;99114.44;107619;1261;61390;-68
2023/11/15 11:02:51;;;;;;;8.10;4.30;;;;;;;12.80;62.18;99115.35;107573;1257;74796;-66
2023/11/15 11:05:40;;;;;;;8.60;4.20;;;;;;;12.78;62.18;99111.21;107963;1257;73269;-66
2023/11/15 11:08:45;;;;;;;9.80;4.70;;;;;;;12.81;62.44;99110.56;107705;1257;74919;-67
2023/11/15 11:11:52;;;;;;;8.80;3.80;;;;;;;12.84;62.60;99111.34;107640;1257;61102;-67
2023/11/15 11:14:27;;;;;;;9.20;3.70;;;;;;;12.88;62.53;99113.59;107731;1257;61016;-66
2023/11/15 11:16:58;;;;;;;7.70;3.90;;;;;;;12.85;62.66;99113.52;107732;1259;74742;-66
2023/11/15 11:19:26;;;;;;;7.00;3.50;;;;;;;12.82;62.64;99112.69;107733;1257;75043;-65
2023/11/15 11:22:04;;;;;;;11.20;4.60;;;;;;;12.82;62.98;99115.95;107733;1261;72961;-67
2023/11/15 11:24:32;;;;;;;7.10;3.20;;;;;;;12.83;63.07;99114.36;107756;1258;61035;-66
2023/11/15 11:27:13;;;;;;;9.00;4.10;;;;;;;12.82;63.10;99112.17;107675;1257;61137;-66
2023/11/15 11:29:51;;;;;;;9.00;3.80;;;;;;;12.83;63.22;99113.52;107768;1259;74813;-67
2023/11/15 11:32:31;;;;;;;9.40;4.00;;;;;;;12.85;63.30;99111.59;107740;1258;72846;-66
2023/11/15 11:35:05;;;;;;;8.00;4.10;;;;;;;12.85;63.34;99110.71;107683;1261;72728;-66
2023/11/15 11:37:44;;;;;;;6.80;3.90;;;;;;;12.85;63.32;99106.58;107707;1260;61136;-65
2023/11/15 11:40:35;;;;;;;7.90;3.60;;;;;;;12.86;63.40;99111.91;107752;1259;60499;-66